createdAt,value
2019-04-25T00:02:57.154Z,11.30
2019-04-25T00:08:02.748Z,11.30
2019-04-25T00:13:09.312Z,11.20
2019-04-25T00:18:15.170Z,11.10
2019-04-25T00:23:21.675Z,11.00
2019-04-25T00:28:26.280Z,11.10
2019-04-25T00:33:31.624Z,11.00
2019-04-25T00:38:37.542Z,10.90
2019-04-25T00:43:44.009Z,10.80
2019-04-25T00:48:48.789Z,10.80
2019-04-25T00:53:54.689Z,10.60
2019-04-25T00:59:11.806Z,10.60
2019-04-25T01:04:21.730Z,10.70
2019-04-25T01:09:28.281Z,10.50
2019-04-25T01:14:34.136Z,10.30
2019-04-25T01:19:40.334Z,10.40
2019-04-25T01:24:45.719Z,10.20
2019-04-25T01:29:50.581Z,10.30
2019-04-25T01:35:08.583Z,10.40
2019-04-25T01:40:33.367Z,10.50
2019-04-25T01:45:38.738Z,10.60
2019-04-25T01:50:43.887Z,10.40
2019-04-25T01:55:56.146Z,10.20
2019-04-25T02:00:56.408Z,10.10
2019-04-25T02:06:04.947Z,10.00
2019-04-25T02:11:40.218Z,9.80
2019-04-25T02:16:45.455Z,9.80
2019-04-25T02:21:49.504Z,9.80
2019-04-25T02:26:55.815Z,9.80
2019-04-25T02:32:03.168Z,9.70
2019-04-25T02:37:09.311Z,9.60
2019-04-25T02:42:16.111Z,9.70
2019-04-25T02:47:48.923Z,9.70
2019-04-25T02:53:23.905Z,9.60
2019-04-25T02:58:28.780Z,9.60
2019-04-25T03:03:34.817Z,9.50
2019-04-25T03:08:39.757Z,9.50
2019-04-25T03:13:45.044Z,9.40
2019-04-25T03:19:02.975Z,9.30
2019-04-25T03:24:13.103Z,9.30
2019-04-25T03:29:16.296Z,9.30
2019-04-25T03:34:21.191Z,9.20
2019-04-25T03:39:27.100Z,9.20
2019-04-25T03:44:33.799Z,9.20
2019-04-25T03:49:38.684Z,9.10
2019-04-25T03:54:43.495Z,9.10
2019-04-25T03:59:48.167Z,9.00
2019-04-25T04:04:53.872Z,8.90
2019-04-25T04:09:59.078Z,8.80
2019-04-25T04:15:05.667Z,8.90
2019-04-25T04:20:29.039Z,8.90
2019-04-25T04:25:35.607Z,8.80
2019-04-25T04:30:40.672Z,8.80
2019-04-25T04:35:45.836Z,8.70
2019-04-25T04:40:50.008Z,8.70
2019-04-25T04:45:54.172Z,8.60
2019-04-25T04:50:58.310Z,8.70
2019-04-25T04:56:01.891Z,8.80
2019-04-25T05:01:05.442Z,8.90
2019-04-25T05:06:24.047Z,8.70
2019-04-25T05:11:30.168Z,9.10
2019-04-25T05:16:34.274Z,9.50
2019-04-25T05:21:38.422Z,9.20
2019-04-25T05:26:44.755Z,9.10
2019-04-25T05:31:51.842Z,9.30
2019-04-25T05:37:33.625Z,9.50
2019-04-25T05:43:06.385Z,9.70
2019-04-25T05:48:11.643Z,9.80
2019-04-25T05:53:17.763Z,9.90
2019-04-25T05:58:24.589Z,10.10
2019-04-25T06:03:30.578Z,10.10
2019-04-25T06:08:41.989Z,10.20
2019-04-25T06:14:00.223Z,10.40
2019-04-25T06:19:18.505Z,10.50
2019-04-25T06:24:34.244Z,10.60
2019-04-25T06:29:40.335Z,10.90
2019-04-25T06:34:45.392Z,11.10
2019-04-25T06:39:50.715Z,11.20
2019-04-25T06:45:25.239Z,11.30
2019-04-25T06:50:30.667Z,11.40
2019-04-25T06:55:36.131Z,11.70
2019-04-25T07:00:55.860Z,12.10
2019-04-25T07:05:48.266Z,12.40
2019-04-25T07:10:53.977Z,12.70
2019-04-25T07:15:59.037Z,12.80
2019-04-25T07:21:03.376Z,12.90
2019-04-25T07:26:30.991Z,13.50
2019-04-25T07:31:48.195Z,13.50
2019-04-25T07:36:53.451Z,14.00
2019-04-25T07:41:58.208Z,14.10
2019-04-25T07:47:04.060Z,14.40
2019-04-25T07:52:11.438Z,14.90
2019-04-25T07:57:16.981Z,15.00
2019-04-25T08:02:23.300Z,15.50
2019-04-25T08:07:29.654Z,15.20
2019-04-25T08:12:35.751Z,15.80
2019-04-25T08:17:59.645Z,15.70
2019-04-25T08:23:06.117Z,16.10
2019-04-25T08:28:11.884Z,16.60
2019-04-25T08:33:19.133Z,16.70
2019-04-25T08:38:24.960Z,17.00
2019-04-25T08:43:30.914Z,17.00
2019-04-25T08:48:56.485Z,17.30
2019-04-25T08:54:08.783Z,17.80
2019-04-25T08:59:39.353Z,18.20
2019-04-25T09:04:57.867Z,18.10
2019-04-25T09:10:05.375Z,18.10
2019-04-25T09:15:11.189Z,18.30
2019-04-25T09:20:17.061Z,18.80
2019-04-25T09:25:23.850Z,19.10
2019-04-25T09:30:29.948Z,19.10
2019-04-25T09:35:36.353Z,19.40
2019-04-25T09:40:41.888Z,19.80
2019-04-25T09:46:13.155Z,19.90
2019-04-25T09:51:33.445Z,20.00
2019-04-25T09:56:46.003Z,20.40
2019-04-25T10:01:51.091Z,20.50
2019-04-25T10:06:56.092Z,20.70
2019-04-25T10:12:00.799Z,20.80
2019-04-25T10:17:06.555Z,20.90
2019-04-25T10:22:13.630Z,21.10
2019-04-25T10:27:19.307Z,21.50
2019-04-25T10:32:24.958Z,21.90
2019-04-25T10:37:30.744Z,21.90
2019-04-25T10:42:35.900Z,21.80
2019-04-25T10:47:43.950Z,21.90
2019-04-25T10:52:50.480Z,22.00
2019-04-25T10:57:56.407Z,22.00
2019-04-25T11:03:14.478Z,22.10
2019-04-25T11:08:20.742Z,22.10
2019-04-25T11:13:26.477Z,22.20
2019-04-25T11:18:33.922Z,22.20
2019-04-25T11:23:39.343Z,22.50
2019-04-25T11:28:45.294Z,22.40
2019-04-25T11:33:54.363Z,22.40
2019-04-25T11:39:34.175Z,22.40
2019-04-25T11:44:39.865Z,22.60
2019-04-25T11:49:46.547Z,23.00
2019-04-25T11:54:54.492Z,23.20
2019-04-25T12:00:00.053Z,23.10
2019-04-25T12:05:05.687Z,23.30
2019-04-25T12:10:12.687Z,23.40
2019-04-25T12:15:17.387Z,23.60
2019-04-25T12:20:22.867Z,24.10
2019-04-25T12:25:28.196Z,24.10
2019-04-25T12:30:38.276Z,24.30
2019-04-25T12:35:40.908Z,24.40
2019-04-25T12:40:44.497Z,24.40
2019-04-25T12:46:21.742Z,24.20
2019-04-25T12:51:26.376Z,24.50
2019-04-25T12:56:30.861Z,24.50
2019-04-25T13:01:35.811Z,25.00
2019-04-25T13:06:40.319Z,25.10
2019-04-25T13:11:44.548Z,25.30
2019-04-25T13:16:49.054Z,25.70
2019-04-25T13:21:54.365Z,25.90
2019-04-25T13:27:20.281Z,25.90
2019-04-25T13:32:45.963Z,25.90
2019-04-25T13:37:50.993Z,26.10
2019-04-25T13:42:58.015Z,26.50
2019-04-25T13:48:05.057Z,26.30
2019-04-25T13:53:10.676Z,26.40
2019-04-25T13:58:16.689Z,26.50
2019-04-25T14:03:22.898Z,26.50
2019-04-25T14:08:29.367Z,26.50
2019-04-25T14:13:35.734Z,26.70
2019-04-25T14:19:15.033Z,26.60
2019-04-25T14:24:22.901Z,26.70
2019-04-25T14:29:28.320Z,26.60
2019-04-25T14:34:34.247Z,26.60
2019-04-25T14:39:40.596Z,26.50
2019-04-25T14:44:46.943Z,26.70
2019-04-25T14:49:52.265Z,26.70
2019-04-25T14:55:33.742Z,26.80
2019-04-25T15:00:41.388Z,26.80
2019-04-25T15:05:44.957Z,26.90
2019-04-25T15:10:50.201Z,27.00
2019-04-25T15:15:53.961Z,27.10
2019-04-25T15:20:59.729Z,27.20
2019-04-25T15:26:03.460Z,27.10
2019-04-25T15:31:07.690Z,27.00
2019-04-25T15:36:17.183Z,27.00
2019-04-25T15:41:41.184Z,26.80
2019-04-25T15:46:52.382Z,26.80
2019-04-25T15:51:58.080Z,26.80
2019-04-25T15:57:04.072Z,26.90
2019-04-25T16:02:11.400Z,26.90
2019-04-25T16:07:16.791Z,26.90
2019-04-25T16:12:22.916Z,27.10
2019-04-25T16:17:28.549Z,27.10
2019-04-25T16:22:35.011Z,27.10
2019-04-25T16:27:41.091Z,27.10
2019-04-25T16:32:46.303Z,27.10
2019-04-25T16:37:52.459Z,26.90
2019-04-25T16:42:59.017Z,26.80
2019-04-25T16:48:05.434Z,26.70
2019-04-25T16:53:22.222Z,26.80
2019-04-25T16:58:34.111Z,26.80
2019-04-25T17:03:41.367Z,26.70
2019-04-25T17:08:48.039Z,26.60
2019-04-25T17:14:01.015Z,26.70
2019-04-25T17:19:11.133Z,26.60
2019-04-25T17:24:17.007Z,26.10
2019-04-25T17:29:22.216Z,25.60
2019-04-25T17:34:47.619Z,24.60
2019-04-25T17:39:58.066Z,23.80
2019-04-25T17:45:05.431Z,23.20
2019-04-25T17:50:10.877Z,22.60
2019-04-25T17:55:15.576Z,22.30
2019-04-25T18:00:35.268Z,22.10
2019-04-25T18:05:41.490Z,22.10
2019-04-25T18:10:47.104Z,21.70
2019-04-25T18:16:01.962Z,21.50
2019-04-25T18:21:06.339Z,21.10
2019-04-25T18:26:36.714Z,20.30
2019-04-25T18:31:41.762Z,19.60
2019-04-25T18:37:06.472Z,19.00
2019-04-25T18:42:39.870Z,19.30
2019-04-25T18:47:46.499Z,18.90
2019-04-25T18:53:20.739Z,19.00
2019-04-25T18:58:46.133Z,18.90
2019-04-25T19:04:11.859Z,18.80
2019-04-25T19:09:17.259Z,18.00
2019-04-25T19:14:22.356Z,18.10
2019-04-25T19:19:27.600Z,17.50
2019-04-25T19:24:32.920Z,17.40
2019-04-25T19:29:37.921Z,17.20
2019-04-25T19:34:46.627Z,17.30
2019-04-25T19:40:15.873Z,17.00
2019-04-25T19:45:21.340Z,17.20
2019-04-25T19:50:26.074Z,17.20
2019-04-25T19:55:32.594Z,17.20
2019-04-25T20:00:38.207Z,17.10
2019-04-25T20:05:58.060Z,17.10
2019-04-25T20:11:09.079Z,17.00
2019-04-25T20:16:12.962Z,17.00
2019-04-25T20:21:16.567Z,16.90
2019-04-25T20:26:20.051Z,16.80
2019-04-25T20:31:23.635Z,16.70
2019-04-25T20:36:28.621Z,16.60
2019-04-25T20:41:33.263Z,16.60
2019-04-25T20:46:37.566Z,16.50
2019-04-25T20:51:43.680Z,16.40
2019-04-25T20:56:50.938Z,16.40
2019-04-25T21:01:55.625Z,16.40
2019-04-25T21:07:01.215Z,16.20
2019-04-25T21:12:07.007Z,16.10
2019-04-25T21:17:16.784Z,16.00
2019-04-25T21:22:21.316Z,16.00
2019-04-25T21:27:27.246Z,15.90
2019-04-25T21:32:52.290Z,15.90
2019-04-25T21:37:58.364Z,15.80
2019-04-25T21:43:08.456Z,15.70
2019-04-25T21:48:15.236Z,15.60
2019-04-25T21:53:20.828Z,15.50
2019-04-25T21:58:26.283Z,15.40
2019-04-25T22:03:31.887Z,15.20
2019-04-25T22:08:37.964Z,15.20
2019-04-25T22:13:43.950Z,15.00
2019-04-25T22:18:49.867Z,15.00
2019-04-25T22:24:06.166Z,14.90
2019-04-25T22:29:03.352Z,14.60
2019-04-25T22:34:22.070Z,14.60
2019-04-25T22:39:27.285Z,14.50
2019-04-25T22:44:33.176Z,14.60
2019-04-25T22:49:38.676Z,14.40
2019-04-25T22:54:44.132Z,14.10
2019-04-25T22:59:50.805Z,14.10
2019-04-25T23:05:12.867Z,14.10
2019-04-25T23:10:14.009Z,13.90
2019-04-25T23:15:19.253Z,14.10
2019-04-25T23:20:24.579Z,14.00
2019-04-25T23:25:36.717Z,14.10
2019-04-25T23:31:18.615Z,13.90
2019-04-25T23:36:22.110Z,13.80
2019-04-25T23:41:25.584Z,13.80
2019-04-25T23:46:28.903Z,13.70
2019-04-25T23:51:33.134Z,13.70
2019-04-25T23:56:37.632Z,13.80
